Time;durP1;ratioP1;P1;durP2;ratioP2;P2;SDS_P1;SDS_P2;PMS_P1;PMS_P2;Temp;Humidity;BMP_temperature;BMP_pressure;BME280_temperature;BME280_humidity;BME280_pressure;Samples;Min_cycle;Max_cycle;Signal;HPM_P1;HPM_P2
2023/06/29 00:03:52;;;;;;;3.83;3.23;;;21.20;70.00;;;;;;10502109;28;20201;-80
2023/06/29 00:08:56;;;;;;;3.37;3.17;;;21.20;70.30;;;;;;10501933;28;20214;-81
2023/06/29 00:13:58;;;;;;;3.47;2.70;;;21.10;69.90;;;;;;10502021;28;20205;-79
2023/06/29 00:19:01;;;;;;;4.50;3.37;;;21.10;69.70;;;;;;10499999;28;20324;-80
2023/06/29 00:24:05;;;;;;;4.00;3.70;;;21.00;70.30;;;;;;10500313;28;20192;-82
2023/06/29 00:29:07;;;;;;;3.20;3.00;;;21.10;70.50;;;;;;10500737;28;20213;-80
2023/06/29 00:34:11;;;;;;;6.03;4.17;;;21.00;70.60;;;;;;10516703;28;20197;-81
2023/06/29 00:39:14;;;;;;;7.93;3.50;;;21.00;70.20;;;;;;10501769;28;20277;-81
2023/06/29 00:44:16;;;;;;;3.53;3.23;;;21.00;70.80;;;;;;10499493;28;20216;-79
2023/06/29 00:49:20;;;;;;;4.20;3.90;;;20.90;70.90;;;;;;10501692;28;20220;-80
2023/06/29 00:54:24;;;;;;;5.73;4.17;;;20.90;71.10;;;;;;10499401;28;20522;-80
2023/06/29 00:59:26;;;;;;;5.33;3.90;;;20.90;70.60;;;;;;10496481;28;20222;-80
2023/06/29 01:04:28;;;;;;;4.40;3.83;;;20.80;70.80;;;;;;10501064;28;20201;-81
2023/06/29 01:09:34;;;;;;;3.93;3.27;;;20.80;71.00;;;;;;10507859;28;20202;-81
2023/06/29 01:14:38;;;;;;;3.77;3.47;;;20.80;71.20;;;;;;10485790;28;20220;-79
2023/06/29 01:19:44;;;;;;;3.87;3.57;;;20.70;71.20;;;;;;10506590;28;20267;-81
2023/06/29 01:24:48;;;;;;;4.17;3.40;;;20.60;71.00;;;;;;10496217;28;20214;-81
2023/06/29 01:29:55;;;;;;;4.03;3.70;;;20.60;71.40;;;;;;10508278;28;20205;-80
2023/06/29 01:34:57;;;;;;;3.40;3.20;;;20.60;72.20;;;;;;10509000;28;20699;-81
2023/06/29 01:40:03;;;;;;;4.13;3.80;;;20.60;71.70;;;;;;10506497;28;20301;-81
2023/06/29 01:45:09;;;;;;;4.90;3.83;;;20.50;70.70;;;;;;10506870;28;20227;-80
2023/06/29 01:50:12;;;;;;;4.47;4.03;;;20.40;71.10;;;;;;10507155;28;20204;-83
2023/06/29 01:55:15;;;;;;;5.37;3.73;;;20.30;71.50;;;;;;10507038;28;20317;-83
2023/06/29 02:00:18;;;;;;;3.97;3.67;;;20.30;72.00;;;;;;10506315;28;20271;-82
2023/06/29 02:05:21;;;;;;;3.70;3.50;;;20.30;72.00;;;;;;10506240;28;20222;-82
2023/06/29 02:10:24;;;;;;;4.40;3.57;;;20.30;71.40;;;;;;10505644;28;20263;-81
2023/06/29 02:15:27;;;;;;;3.70;3.40;;;20.30;72.10;;;;;;10504514;28;20248;-83
2023/06/29 02:20:29;;;;;;;4.47;4.07;;;20.30;71.70;;;;;;10506484;28;20232;-82
2023/06/29 02:25:32;;;;;;;4.50;3.60;;;20.20;71.30;;;;;;10507103;28;20225;-83
2023/06/29 02:30:34;;;;;;;6.50;4.40;;;20.20;71.60;;;;;;10507362;28;20221;-82
2023/06/29 02:35:37;;;;;;;5.03;4.40;;;20.10;71.40;;;;;;10487977;28;20221;-81
2023/06/29 02:40:41;;;;;;;4.17;3.73;;;20.00;71.90;;;;;;10506091;28;20668;-81
2023/06/29 02:45:43;;;;;;;4.27;3.87;;;20.00;72.50;;;;;;10488696;28;20500;-81
2023/06/29 02:50:47;;;;;;;3.97;3.63;;;20.00;72.20;;;;;;10487910;28;20247;-80
2023/06/29 02:55:51;;;;;;;4.17;3.87;;;20.00;72.80;;;;;;10509458;28;20221;-81
2023/06/29 03:00:53;;;;;;;4.60;4.20;;;19.90;72.50;;;;;;10507104;28;20221;-81
2023/06/29 03:05:55;;;;;;;4.50;4.20;;;19.90;72.40;;;;;;10503254;28;20213;-80
2023/06/29 03:10:59;;;;;;;4.73;3.83;;;19.90;72.60;;;;;;10503788;28;20603;-81
2023/06/29 03:16:01;;;;;;;4.30;3.90;;;19.90;72.50;;;;;;10504162;28;20235;-81
2023/06/29 03:21:03;;;;;;;4.23;3.93;;;19.80;73.00;;;;;;10513610;28;20225;-82
2023/06/29 03:26:07;;;;;;;4.50;4.10;;;19.80;73.10;;;;;;10508335;28;20228;-78
2023/06/29 03:31:09;;;;;;;6.63;4.40;;;19.80;72.30;;;;;;10503204;28;20217;-81
2023/06/29 03:36:12;;;;;;;4.63;4.13;;;19.80;73.30;;;;;;10503437;28;20220;-81
2023/06/29 03:41:16;;;;;;;5.57;3.93;;;19.70;72.70;;;;;;10504117;28;20312;-79
2023/06/29 03:46:18;;;;;;;4.50;3.80;;;19.70;72.80;;;;;;10501513;28;20275;-79
2023/06/29 03:51:20;;;;;;;3.97;3.67;;;19.70;72.90;;;;;;10501616;28;20276;-81
2023/06/29 03:56:23;;;;;;;5.43;4.43;;;19.70;73.70;;;;;;10502793;28;20225;-81
2023/06/29 04:01:25;;;;;;;4.53;4.13;;;19.70;73.70;;;;;;10502473;28;20209;-79
2023/06/29 04:06:28;;;;;;;6.10;5.50;;;19.70;73.70;;;;;;10502579;28;20223;-80
2023/06/29 04:11:31;;;;;;;4.30;3.90;;;19.70;73.30;;;;;;10480185;28;20255;-82
2023/06/29 04:16:33;;;;;;;7.60;4.50;;;19.80;73.90;;;;;;10496687;28;20584;-82
2023/06/29 04:21:36;;;;;;;4.60;4.20;;;19.80;73.50;;;;;;10501190;28;20229;-79
2023/06/29 04:26:41;;;;;;;3.77;3.57;;;19.80;73.80;;;;;;10494042;28;20295;-81
2023/06/29 04:31:43;;;;;;;4.40;4.10;;;19.80;74.10;;;;;;10495402;28;20190;-82
2023/06/29 04:36:46;;;;;;;4.70;4.27;;;19.90;73.90;;;;;;10500828;28;20241;-79
2023/06/29 04:42:00;;;;;;;4.60;4.20;;;19.90;74.00;;;;;;10499773;28;20231;-80
2023/06/29 04:47:03;;;;;;;4.80;4.50;;;19.90;74.00;;;;;;10499513;28;20711;-81
2023/06/29 04:52:06;;;;;;;4.73;4.33;;;19.90;74.00;;;;;;10501414;28;20691;-81
2023/06/29 04:57:12;;;;;;;8.33;4.80;;;20.00;74.50;;;;;;10522008;22;20239;-80
2023/06/29 05:02:14;;;;;;;5.23;4.80;;;20.00;75.10;;;;;;10506701;28;20983;-79
2023/06/29 05:07:16;;;;;;;5.43;5.03;;;20.00;74.80;;;;;;10501648;28;20228;-79
2023/06/29 05:12:20;;;;;;;5.07;4.67;;;20.10;74.30;;;;;;10481561;28;20200;-78
2023/06/29 05:17:22;;;;;;;5.93;5.10;;;20.10;74.50;;;;;;10508990;28;20268;-77
2023/06/29 05:22:24;;;;;;;6.43;5.83;;;20.20;74.60;;;;;;10520589;28;20684;-79
2023/06/29 05:27:28;;;;;;;6.43;4.93;;;20.20;74.70;;;;;;10522271;28;20221;-79
2023/06/29 05:32:30;;;;;;;7.00;6.40;;;20.30;74.30;;;;;;10521031;28;20205;-79
2023/06/29 05:37:33;;;;;;;8.80;5.67;;;20.30;74.20;;;;;;10491741;28;20221;-78
2023/06/29 05:42:37;;;;;;;6.23;5.13;;;20.40;74.40;;;;;;10500658;28;20235;-79
2023/06/29 05:47:39;;;;;;;5.80;5.33;;;20.50;74.70;;;;;;10520579;28;20700;-77
2023/06/29 05:52:41;;;;;;;5.57;5.17;;;20.60;74.50;;;;;;10521675;28;20205;-79
2023/06/29 05:57:44;;;;;;;6.90;5.57;;;20.60;74.50;;;;;;10523804;28;20225;-79
2023/06/29 06:02:46;;;;;;;6.10;5.20;;;20.70;74.10;;;;;;10522725;28;20732;-79
2023/06/29 06:07:49;;;;;;;5.90;5.40;;;20.80;74.30;;;;;;10516404;28;20225;-79
2023/06/29 06:12:52;;;;;;;5.13;4.50;;;21.00;74.20;;;;;;10513956;28;20215;-78
2023/06/29 06:17:54;;;;;;;5.87;4.97;;;21.10;74.40;;;;;;10514265;28;20218;-78
2023/06/29 06:22:56;;;;;;;4.87;4.47;;;21.20;73.30;;;;;;10479452;28;20205;-79
2023/06/29 06:28:00;;;;;;;6.43;4.33;;;21.30;71.50;;;;;;10496496;28;20252;-79
2023/06/29 06:33:02;;;;;;;6.50;5.30;;;21.50;72.50;;;;;;10504303;28;20201;-78
2023/06/29 06:38:04;;;;;;;5.13;4.50;;;21.60;73.20;;;;;;10503311;28;20221;-79
2023/06/29 06:43:08;;;;;;;4.70;4.30;;;21.80;73.40;;;;;;10512917;28;20221;-79
2023/06/29 06:48:10;;;;;;;9.93;5.63;;;22.00;72.70;;;;;;10513569;28;20587;-79
2023/06/29 06:53:12;;;;;;;5.53;5.03;;;22.30;71.40;;;;;;10514481;28;20205;-80
2023/06/29 06:58:15;;;;;;;6.93;5.30;;;22.60;71.30;;;;;;10516048;28;20715;-79
2023/06/29 07:03:18;;;;;;;8.80;5.90;;;22.90;71.10;;;;;;10515551;28;20225;-78
2023/06/29 07:08:21;;;;;;;9.63;5.60;;;23.10;69.90;;;;;;10497461;28;20279;-80
2023/06/29 07:13:25;;;;;;;4.97;4.50;;;23.40;69.30;;;;;;10516034;28;20197;-80
2023/06/29 07:18:27;;;;;;;5.53;5.10;;;23.60;68.60;;;;;;10506902;28;20228;-79
2023/06/29 07:23:29;;;;;;;5.37;4.90;;;23.90;68.70;;;;;;10504635;28;20209;-78
2023/06/29 07:28:32;;;;;;;5.40;4.23;;;24.40;67.90;;;;;;10506779;28;20225;-80
2023/06/29 07:33:34;;;;;;;4.90;4.60;;;25.00;65.90;;;;;;10492469;28;20653;-79
2023/06/29 07:38:36;;;;;;;4.50;4.10;;;25.70;63.60;;;;;;10517525;28;20231;-79
2023/06/29 07:43:41;;;;;;;5.27;4.77;;;26.10;62.50;;;;;;10516032;28;20217;-79
2023/06/29 07:48:43;;;;;;;4.87;4.33;;;26.40;61.60;;;;;;10491740;28;20209;-79
2023/06/29 07:53:45;;;;;;;9.20;5.20;;;26.70;61.40;;;;;;10518193;28;20216;-81
2023/06/29 07:58:49;;;;;;;9.93;4.23;;;27.00;59.50;;;;;;10518400;28;20232;-79
2023/06/29 08:03:51;;;;;;;4.40;4.00;;;27.20;59.60;;;;;;10509905;28;20221;-79
2023/06/29 08:08:53;;;;;;;4.27;3.83;;;27.60;59.60;;;;;;10519119;28;20304;-81
2023/06/29 08:13:57;;;;;;;3.40;3.10;;;28.30;58.20;;;;;;10498470;28;20595;-81
2023/06/29 08:18:59;;;;;;;3.50;3.30;;;28.80;57.10;;;;;;10522693;28;20236;-81
2023/06/29 08:24:01;;;;;;;10.30;3.20;;;28.80;55.00;;;;;;10530918;28;20221;-81
2023/06/29 08:29:07;;;;;;;3.40;3.10;;;29.00;55.20;;;;;;10529475;28;20229;-80
2023/06/29 08:34:09;;;;;;;3.40;2.97;;;29.20;54.40;;;;;;10516352;28;20300;-80
2023/06/29 08:39:11;;;;;;;3.10;2.90;;;29.20;52.90;;;;;;10517595;28;20224;-79
2023/06/29 08:44:16;;;;;;;3.10;2.80;;;29.10;53.30;;;;;;10515319;28;20249;-81
2023/06/29 08:49:22;;;;;;;4.00;3.50;;;29.30;53.70;;;;;;10517319;28;20225;-81
2023/06/29 08:54:26;;;;;;;2.80;2.60;;;29.80;53.30;;;;;;10514058;28;20201;-81
2023/06/29 08:59:30;;;;;;;3.20;3.00;;;30.30;52.50;;;;;;10516034;28;20255;-80
2023/06/29 09:04:32;;;;;;;3.57;3.20;;;30.80;51.50;;;;;;10522512;28;20278;-79
2023/06/29 09:09:34;;;;;;;5.63;2.50;;;31.20;50.20;;;;;;10521470;28;20943;-81
2023/06/29 09:14:43;;;;;;;2.90;2.70;;;31.70;50.30;;;;;;10524853;28;20197;-79
2023/06/29 09:19:54;;;;;;;3.03;2.83;;;32.00;49.50;;;;;;10517194;28;20240;-80
2023/06/29 09:24:57;;;;;;;6.33;3.03;;;32.10;49.90;;;;;;10523174;28;20211;-81
2023/06/29 09:30:00;;;;;;;3.00;2.80;;;32.60;48.20;;;;;;10499420;28;20200;-80
2023/06/29 09:35:06;;;;;;;3.73;2.67;;;33.10;48.20;;;;;;10499806;28;20209;-81
2023/06/29 09:40:11;;;;;;;3.10;3.00;;;33.70;47.70;;;;;;10488965;28;20205;-81
2023/06/29 09:45:15;;;;;;;3.83;3.10;;;33.80;47.10;;;;;;10520626;28;20595;-80
2023/06/29 09:50:18;;;;;;;3.20;3.00;;;34.10;44.70;;;;;;10524453;28;20193;-82
2023/06/29 09:55:29;;;;;;;3.63;3.00;;;34.00;45.40;;;;;;10502477;28;20228;-82
2023/06/29 10:00:33;;;;;;;3.20;2.97;;;33.50;46.50;;;;;;10528997;28;20247;-81
2023/06/29 10:05:35;;;;;;;2.70;2.60;;;33.50;46.60;;;;;;10524133;28;20290;-81
2023/06/29 10:10:38;;;;;;;2.53;2.33;;;33.70;47.00;;;;;;10527182;28;20664;-81
2023/06/29 10:15:42;;;;;;;5.40;2.80;;;34.00;45.20;;;;;;10527455;28;20227;-82
2023/06/29 10:20:45;;;;;;;3.10;2.80;;;34.70;46.30;;;;;;10531580;28;20251;-82
2023/06/29 10:25:50;;;;;;;4.32;2.75;;;36.30;44.30;;;;;;10530864;28;20749;-80
2023/06/29 10:30:59;;;;;;;6.00;3.40;;;36.80;41.90;;;;;;10513451;28;20204;-82
2023/06/29 10:36:02;;;;;;;3.10;2.90;;;35.80;42.30;;;;;;10529895;28;20213;-80
2023/06/29 10:41:07;;;;;;;3.10;2.87;;;34.70;43.80;;;;;;10535315;28;20221;-81
2023/06/29 10:46:14;;;;;;;3.17;2.97;;;33.80;44.00;;;;;;10526606;28;20248;-80
2023/06/29 10:51:16;;;;;;;3.07;2.87;;;32.80;45.70;;;;;;10523460;28;20649;-79
2023/06/29 10:56:30;;;;;;;3.07;2.93;;;32.10;47.00;;;;;;10522178;22;20261;-79
2023/06/29 11:01:33;;;;;;;3.43;2.90;;;31.60;47.30;;;;;;10543568;28;20223;-78
2023/06/29 11:06:36;;;;;;;3.50;3.20;;;31.20;46.80;;;;;;10545351;28;20244;-81
2023/06/29 11:11:41;;;;;;;3.93;3.63;;;30.80;48.40;;;;;;10545906;28;20681;-77
2023/06/29 11:16:47;;;;;;;4.20;3.80;;;30.30;48.90;;;;;;10544365;28;20219;-78
2023/06/29 11:21:54;;;;;;;3.43;3.23;;;29.90;49.00;;;;;;10544174;28;20496;-76
2023/06/29 11:26:56;;;;;;;4.30;3.60;;;29.50;49.70;;;;;;10525671;28;20219;-79
2023/06/29 11:32:01;;;;;;;3.47;3.27;;;29.20;51.60;;;;;;10526495;28;20189;-78
2023/06/29 11:37:03;;;;;;;4.20;3.40;;;29.00;52.40;;;;;;10526761;28;20228;-77
2023/06/29 11:42:09;;;;;;;4.50;4.10;;;29.00;52.80;;;;;;10543344;28;20227;-77
2023/06/29 11:47:13;;;;;;;4.23;3.83;;;29.00;53.00;;;;;;10543245;28;20246;-78
2023/06/29 11:52:16;;;;;;;3.73;3.30;;;29.00;52.40;;;;;;10543472;28;20196;-78
2023/06/29 11:57:18;;;;;;;3.83;3.50;;;29.00;51.30;;;;;;10540120;28;20263;-78
2023/06/29 12:02:23;;;;;;;4.37;4.07;;;29.00;51.70;;;;;;10523519;28;20224;-78
2023/06/29 12:07:36;;;;;;;4.40;4.10;;;29.10;52.10;;;;;;10540859;28;20224;-78
2023/06/29 12:12:39;;;;;;;3.90;3.60;;;29.30;51.70;;;;;;10509920;28;20203;-79
2023/06/29 12:17:44;;;;;;;5.57;3.50;;;29.50;52.20;;;;;;10525402;28;20299;-78
2023/06/29 12:22:48;;;;;;;4.20;3.90;;;29.70;51.70;;;;;;10525619;28;20228;-78
2023/06/29 12:27:51;;;;;;;4.60;3.93;;;29.90;52.30;;;;;;10543513;28;20341;-78
2023/06/29 12:32:56;;;;;;;5.77;5.27;;;30.00;51.50;;;;;;10542635;28;20204;-78
2023/06/29 12:37:59;;;;;;;4.87;4.47;;;29.90;50.50;;;;;;10542003;28;20248;-78
2023/06/29 12:43:01;;;;;;;4.60;4.20;;;29.90;51.70;;;;;;10542425;28;20220;-77
2023/06/29 12:48:05;;;;;;;4.70;4.30;;;29.80;51.80;;;;;;10542326;28;20231;-78
2023/06/29 12:53:07;;;;;;;6.47;4.60;;;29.80;51.20;;;;;;10523981;28;20283;-78
2023/06/29 12:58:09;;;;;;;4.53;3.87;;;29.70;51.70;;;;;;10542618;28;20235;-79
2023/06/29 13:03:14;;;;;;;4.40;3.53;;;29.70;52.00;;;;;;10543261;28;20598;-78
2023/06/29 13:08:16;;;;;;;4.23;3.87;;;29.70;52.60;;;;;;10523977;28;20227;-79
2023/06/29 13:13:20;;;;;;;4.50;3.50;;;29.80;53.00;;;;;;10541501;28;20221;-78
2023/06/29 13:18:24;;;;;;;4.20;3.80;;;29.70;52.50;;;;;;10527023;28;20230;-77
2023/06/29 13:23:26;;;;;;;3.90;3.60;;;29.70;52.00;;;;;;10551588;28;20228;-78
2023/06/29 13:28:28;;;;;;;3.87;3.57;;;29.70;52.30;;;;;;10551464;28;20540;-79
2023/06/29 13:33:32;;;;;;;4.03;3.73;;;29.70;52.60;;;;;;10549919;28;20193;-78
2023/06/29 13:38:34;;;;;;;3.60;3.30;;;29.60;52.80;;;;;;10548833;28;20290;-78
2023/06/29 13:43:36;;;;;;;5.67;3.67;;;29.60;52.20;;;;;;10548236;28;20232;-78
2023/06/29 13:48:39;;;;;;;4.40;4.00;;;29.50;52.70;;;;;;10547559;28;20578;-78
2023/06/29 13:53:41;;;;;;;4.13;3.83;;;29.60;52.10;;;;;;10548260;28;20224;-77
2023/06/29 13:58:44;;;;;;;5.90;3.70;;;29.50;52.20;;;;;;10549003;28;20722;-79
2023/06/29 14:03:48;;;;;;;3.67;3.47;;;29.50;52.90;;;;;;10530795;28;20216;-77
2023/06/29 14:08:50;;;;;;;3.90;3.60;;;29.50;52.90;;;;;;10549818;28;20571;-78
2023/06/29 14:13:52;;;;;;;5.33;3.87;;;29.50;52.70;;;;;;10546625;28;20200;-77
2023/06/29 14:18:56;;;;;;;4.93;3.80;;;29.50;53.00;;;;;;10546245;28;20312;-78
2023/06/29 14:23:59;;;;;;;4.03;3.73;;;29.50;53.30;;;;;;10526488;28;20311;-78
2023/06/29 14:29:01;;;;;;;3.93;3.63;;;29.40;53.10;;;;;;10527024;28;20228;-78
2023/06/29 14:34:04;;;;;;;4.03;3.63;;;29.40;53.90;;;;;;10546457;28;20204;-78
2023/06/29 14:39:06;;;;;;;3.77;3.47;;;29.30;53.70;;;;;;10528738;28;20220;-78
2023/06/29 14:44:09;;;;;;;3.77;3.47;;;29.30;52.80;;;;;;10548736;28;20228;-80
2023/06/29 14:49:12;;;;;;;3.97;3.67;;;29.10;52.90;;;;;;10544394;28;20305;-78
2023/06/29 14:54:14;;;;;;;4.97;3.87;;;29.00;53.70;;;;;;10543368;28;20197;-77
2023/06/29 14:59:16;;;;;;;3.80;3.13;;;28.90;53.70;;;;;;10544197;28;20246;-77
2023/06/29 15:04:20;;;;;;;5.07;4.10;;;28.90;53.70;;;;;;10543948;28;20282;-77
2023/06/29 15:09:23;;;;;;;4.93;3.97;;;28.80;53.40;;;;;;10525235;28;20217;-77
2023/06/29 15:14:25;;;;;;;3.60;3.30;;;28.80;53.80;;;;;;10543669;28;20235;-78
2023/06/29 15:19:29;;;;;;;10.90;3.90;;;28.80;54.20;;;;;;10542646;28;20224;-77
2023/06/29 15:24:31;;;;;;;4.23;3.83;;;28.80;53.10;;;;;;10508482;28;20220;-77
2023/06/29 15:29:33;;;;;;;3.93;3.63;;;28.80;53.80;;;;;;10524475;28;20251;-78
2023/06/29 15:34:37;;;;;;;4.03;3.50;;;28.80;54.00;;;;;;10542293;28;20197;-78
2023/06/29 15:39:39;;;;;;;4.10;3.60;;;28.90;54.40;;;;;;10523296;28;20274;-77
2023/06/29 15:44:41;;;;;;;3.73;3.43;;;28.90;53.90;;;;;;10540783;28;20640;-77
2023/06/29 15:49:44;;;;;;;5.67;3.97;;;28.80;54.10;;;;;;10541096;28;20224;-77
2023/06/29 15:54:46;;;;;;;5.47;4.10;;;28.80;54.20;;;;;;10540620;28;20276;-78
2023/06/29 15:59:49;;;;;;;3.80;3.50;;;28.70;54.60;;;;;;10539448;28;20240;-78
2023/06/29 16:04:52;;;;;;;5.70;4.27;;;28.60;54.90;;;;;;10539779;28;20223;-78
2023/06/29 16:09:54;;;;;;;4.10;3.80;;;28.50;54.90;;;;;;10539674;28;20228;-77
2023/06/29 16:14:58;;;;;;;4.13;3.10;;;28.40;55.20;;;;;;10544029;28;20664;-77
2023/06/29 16:20:02;;;;;;;3.93;3.63;;;28.20;54.80;;;;;;10549268;28;20304;-77
2023/06/29 16:25:06;;;;;;;4.33;3.93;;;28.10;55.60;;;;;;10515325;28;20760;-78
2023/06/29 16:30:09;;;;;;;4.53;3.30;;;28.00;55.80;;;;;;10570702;28;20231;-78
2023/06/29 16:35:13;;;;;;;3.67;3.37;;;27.90;56.10;;;;;;10584631;28;20208;-78
2023/06/29 16:40:15;;;;;;;5.13;3.43;;;27.80;55.70;;;;;;10567221;28;20289;-77
2023/06/29 16:45:17;;;;;;;5.40;3.87;;;27.80;56.00;;;;;;10562578;28;20231;-78
2023/06/29 16:50:20;;;;;;;4.43;4.03;;;27.60;56.60;;;;;;10572948;28;20225;-77
2023/06/29 16:55:22;;;;;;;3.70;3.40;;;27.50;56.80;;;;;;10577308;28;20211;-77
2023/06/29 17:00:24;;;;;;;3.93;3.57;;;27.40;56.90;;;;;;10553422;22;20236;-83
2023/06/29 17:05:28;;;;;;;5.07;4.23;;;27.40;57.10;;;;;;10525957;28;20282;-83
2023/06/29 17:10:33;;;;;;;3.57;3.30;;;27.30;57.30;;;;;;10497008;28;20566;-84
2023/06/29 17:15:35;;;;;;;3.97;3.53;;;27.40;57.20;;;;;;10528486;28;20202;-83
2023/06/29 17:20:39;;;;;;;4.07;3.77;;;27.40;57.90;;;;;;10505962;28;20230;-84
2023/06/29 17:25:46;;;;;;;3.73;3.47;;;27.40;56.60;;;;;;10526242;28;20200;-82
2023/06/29 17:30:48;;;;;;;3.80;3.40;;;27.40;57.30;;;;;;10521752;28;20225;-81
2023/06/29 17:35:51;;;;;;;3.23;3.03;;;27.40;57.50;;;;;;10524730;28;20671;-83
2023/06/29 17:40:54;;;;;;;3.77;3.47;;;27.40;57.90;;;;;;10505107;28;20323;-83
2023/06/29 17:45:56;;;;;;;3.80;3.50;;;27.40;58.10;;;;;;10529480;28;20232;-83
2023/06/29 17:51:12;;;;;;;3.53;3.33;;;27.30;58.10;;;;;;10525700;28;20232;-83
2023/06/29 17:56:15;;;;;;;14.03;3.70;;;27.20;57.90;;;;;;10525758;28;20217;-83
2023/06/29 18:01:17;;;;;;;3.90;3.60;;;27.10;58.50;;;;;;10503852;28;20205;-83
2023/06/29 18:06:21;;;;;;;4.00;3.70;;;27.00;58.90;;;;;;10524150;28;20679;-84
2023/06/29 18:11:23;;;;;;;4.30;3.90;;;26.90;59.60;;;;;;10530864;28;20204;-83
2023/06/29 18:16:25;;;;;;;5.07;3.53;;;26.80;59.80;;;;;;10504488;28;20223;-84
2023/06/29 18:21:28;;;;;;;3.97;3.67;;;26.80;59.10;;;;;;10538422;28;20732;-83
2023/06/29 18:26:31;;;;;;;4.13;3.53;;;26.70;59.20;;;;;;10513956;28;20724;-82
2023/06/29 18:31:33;;;;;;;3.50;3.20;;;26.60;59.30;;;;;;10528733;28;20231;-83
2023/06/29 18:36:37;;;;;;;4.07;3.77;;;26.60;59.70;;;;;;10535841;28;20223;-83
2023/06/29 18:41:39;;;;;;;4.10;3.80;;;26.50;60.30;;;;;;10536868;28;20311;-83
2023/06/29 18:47:09;;;;;;;4.40;4.00;;;26.50;58.90;;;;;;10497697;28;20303;-83
2023/06/29 18:52:12;;;;;;;4.10;3.80;;;26.40;59.70;;;;;;10514815;28;20229;-84
2023/06/29 18:57:15;;;;;;;5.33;4.40;;;26.30;62.30;;;;;;10520432;28;20231;-84
2023/06/29 19:02:17;;;;;;;4.40;4.00;;;26.30;62.60;;;;;;10532604;28;20244;-83
2023/06/29 19:07:20;;;;;;;4.07;3.70;;;26.20;62.40;;;;;;10554498;28;20300;-82
2023/06/29 19:12:22;;;;;;;3.57;3.27;;;26.20;61.90;;;;;;10532363;28;20201;-83
2023/06/29 19:17:24;;;;;;;4.13;3.83;;;26.10;63.30;;;;;;10530938;28;20219;-83
2023/06/29 19:22:28;;;;;;;3.87;3.50;;;26.10;64.20;;;;;;10546744;28;20312;-83
2023/06/29 19:27:30;;;;;;;3.73;3.43;;;26.00;66.20;;;;;;10513740;28;20217;-83
2023/06/29 19:32:32;;;;;;;4.60;4.27;;;26.00;66.00;;;;;;10529014;28;20204;-83
2023/06/29 19:37:35;;;;;;;4.30;3.97;;;26.00;63.00;;;;;;10514831;28;20221;-84
2023/06/29 19:42:38;;;;;;;4.03;3.73;;;25.90;63.60;;;;;;10525172;28;20232;-84
2023/06/29 19:47:40;;;;;;;4.60;4.03;;;25.80;64.40;;;;;;10543135;28;20212;-81
2023/06/29 19:52:43;;;;;;;5.77;4.40;;;25.70;63.40;;;;;;10527495;28;20228;-83
2023/06/29 19:57:45;;;;;;;5.60;3.90;;;25.60;64.20;;;;;;10530899;28;20229;-84
2023/06/29 20:02:48;;;;;;;4.63;3.90;;;25.50;67.30;;;;;;10533908;28;20256;-83
2023/06/29 20:07:51;;;;;;;4.20;3.63;;;25.20;68.40;;;;;;10531425;28;20304;-82
2023/06/29 20:12:53;;;;;;;4.10;3.80;;;25.00;68.90;;;;;;10526838;28;20185;-81
2023/06/29 20:17:55;;;;;;;4.57;4.27;;;24.90;68.30;;;;;;10515209;28;20209;-83
2023/06/29 20:22:59;;;;;;;6.30;4.33;;;24.90;68.10;;;;;;10534036;28;20216;-83
2023/06/29 20:28:01;;;;;;;8.67;4.20;;;24.80;67.60;;;;;;10535229;28;20422;-83
2023/06/29 20:33:03;;;;;;;4.00;3.70;;;24.80;67.70;;;;;;10512742;28;20201;-82
2023/06/29 20:38:07;;;;;;;4.00;3.60;;;24.80;68.20;;;;;;10525273;28;20247;-83
2023/06/29 20:43:11;;;;;;;4.97;4.20;;;24.70;67.70;;;;;;10518559;28;20270;-82
2023/06/29 20:48:13;;;;;;;5.27;4.00;;;24.70;67.80;;;;;;10495582;28;20224;-83
2023/06/29 20:53:17;;;;;;;3.90;3.70;;;24.70;68.10;;;;;;10529966;28;20224;-82
2023/06/29 20:58:19;;;;;;;4.10;3.80;;;24.70;68.50;;;;;;10542130;28;20245;-82
2023/06/29 21:03:21;;;;;;;4.73;4.30;;;24.60;68.10;;;;;;10532032;28;20236;-84
2023/06/29 21:08:25;;;;;;;4.30;4.00;;;24.60;68.00;;;;;;10514264;28;20225;-83
2023/06/29 21:13:28;;;;;;;6.47;3.83;;;24.60;68.10;;;;;;10531671;28;20224;-83
2023/06/29 21:18:30;;;;;;;4.10;3.80;;;24.50;68.00;;;;;;10526755;28;20225;-82
2023/06/29 21:23:34;;;;;;;4.93;3.90;;;24.50;68.50;;;;;;10529898;28;20224;-83
2023/06/29 21:28:41;;;;;;;6.40;4.10;;;24.50;68.00;;;;;;10508643;28;20233;-83
2023/06/29 21:33:43;;;;;;;2.97;2.77;;;24.50;67.80;;;;;;10494623;28;20238;-83
2023/06/29 21:38:47;;;;;;;3.73;3.43;;;24.40;68.10;;;;;;10533639;28;20308;-82
2023/06/29 21:43:49;;;;;;;4.50;4.10;;;24.40;68.20;;;;;;10535917;28;20250;-83
2023/06/29 21:48:52;;;;;;;4.50;4.10;;;24.40;68.40;;;;;;10542610;28;20243;-82
2023/06/29 21:53:55;;;;;;;4.87;4.40;;;24.30;68.70;;;;;;10544159;28;20193;-83
2023/06/29 21:58:57;;;;;;;4.63;4.23;;;24.30;68.30;;;;;;10512819;28;20246;-83
2023/06/29 22:03:59;;;;;;;4.70;4.13;;;24.30;69.10;;;;;;10537714;28;20225;-83
2023/06/29 22:09:03;;;;;;;4.83;4.43;;;24.30;68.80;;;;;;10537295;28;20660;-83
2023/06/29 22:14:06;;;;;;;6.10;4.10;;;24.40;70.20;;;;;;10532922;28;20767;-83
2023/06/29 22:19:11;;;;;;;4.07;3.77;;;24.40;71.00;;;;;;10532441;28;20216;-83
2023/06/29 22:24:14;;;;;;;4.03;3.70;;;24.40;71.30;;;;;;10524300;28;20656;-83
2023/06/29 22:29:19;;;;;;;6.53;3.77;;;24.40;69.90;;;;;;10533470;28;20217;-82
2023/06/29 22:34:24;;;;;;;4.67;4.20;;;24.40;69.40;;;;;;10530449;28;20192;-83
2023/06/29 22:39:28;;;;;;;4.70;4.30;;;24.40;69.40;;;;;;10508716;28;20209;-83
2023/06/29 22:44:30;;;;;;;4.80;4.40;;;24.40;70.10;;;;;;10530378;28;20268;-83
2023/06/29 22:49:34;;;;;;;4.57;4.17;;;24.40;70.10;;;;;;10529034;28;20243;-83
2023/06/29 22:54:38;;;;;;;4.30;4.00;;;24.30;70.20;;;;;;10536615;28;20196;-83
2023/06/29 22:59:43;;;;;;;5.10;4.43;;;24.30;69.90;;;;;;10534964;22;20229;-79
2023/06/29 23:04:45;;;;;;;4.40;4.10;;;24.30;70.10;;;;;;10488997;28;20237;-78
2023/06/29 23:09:48;;;;;;;5.00;4.10;;;24.20;70.90;;;;;;10485745;28;20226;-78
2023/06/29 23:14:51;;;;;;;4.80;4.50;;;24.30;70.50;;;;;;10484206;28;20248;-77
2023/06/29 23:19:53;;;;;;;4.30;3.90;;;24.20;69.30;;;;;;10478841;28;20285;-77
2023/06/29 23:24:56;;;;;;;4.97;4.50;;;24.20;69.90;;;;;;10487803;28;20213;-77
2023/06/29 23:29:58;;;;;;;5.40;4.40;;;24.20;70.60;;;;;;10495872;28;20244;-78
2023/06/29 23:35:01;;;;;;;4.67;4.37;;;24.20;69.70;;;;;;10477632;28;20715;-77
2023/06/29 23:40:07;;;;;;;6.07;5.17;;;24.20;70.90;;;;;;10472270;28;20278;-76
2023/06/29 23:45:12;;;;;;;5.13;4.73;;;24.10;70.40;;;;;;10473008;28;20232;-78
2023/06/29 23:50:14;;;;;;;4.90;4.40;;;24.10;70.70;;;;;;10470244;28;20231;-78
2023/06/29 23:55:17;;;;;;;4.43;4.13;;;24.10;70.00;;;;;;10458971;28;20201;-78
